Monday, July 28, 2014, 4:15 AM EDT

KDOV, Dover Air Force Base

Location: Dover, DE, United States Lat: 39.133
Local Time: 4:15 AM EDT ( 8:15 GMT) Lon: -75.467
Time Zone: US/Eastern Elev: 29 ft

Show me the last for .
Show Decoded

2014-07-28 04:03 METAR KDOV 280803Z AUTO 20004KT 10SM SCT026 BKN032 24/24 A2956 =
2014-07-28 03:58 METAR KDOV 280758Z AUTO 21005KT 10SM BKN029 BKN035 24/24 A2956 =
2014-07-28 03:33 METAR KDOV 280733Z AUTO 18006KT 10SM SCT024 BKN031 24/24 A2957 RMK AO2 =
2014-07-28 02:58 METAR KDOV 280658Z AUTO 16007KT 10SM OVC024 24/24 A2958 =
2014-07-28 02:33 METAR KDOV 280633Z AUTO 15005KT 10SM BKN028 BKN042 24/24 A2958 RMK AO2 CIG
                 028V037 =
2014-07-28 02:23 METAR KDOV 280623Z AUTO 15005KT 10SM BKN031 BKN041 24/24 A2958 RMK AO2 =
2014-07-28 02:08 METAR KDOV 280608Z AUTO 16007KT 10SM SCT027 BKN037 24/23 A2959 RMK AO2 =
2014-07-28 01:58 METAR KDOV 280558Z AUTO 16006KT 10SM BKN028 BKN036 OVC150 24/24 A2960 RMK AO2
                 SLP026 T02420235 10261 20240 57022 =
2014-07-28 01:48 METAR KDOV 280548Z AUTO 16007KT 10SM BKN028 BKN150 BKN210 24/23 A2960 RMK AO2
                 CIG 028V150 BKN028 V FEW =
2014-07-28 00:58 METAR KDOV 280458Z AUTO 17006KT 10SM OVC100 24/23 A2962 =
2014-07-27 23:58 METAR KDOV 280358Z AUTO 17010KT 10SM FEW033 BKN140 24/23 A2964 =
2014-07-27 22:58 METAR KDOV 280258Z AUTO 16008KT 10SM FEW220 24/23 A2966 RMK AO2 SLP047 T02400234
                 58010 =
2014-07-27 21:58 METAR KDOV 280158Z AUTO 17008KT 10SM FEW150 SCT230 25/23 A2968 =
2014-07-27 20:58 METAR KDOV 280058Z AUTO 19009KT 10SM BKN150 OVC170 26/23 A2970 =
2014-07-27 19:58 METAR KDOV 272358Z AUTO 19010KT 10SM OVC150 26/23 A2969 RMK AO2 SLP057 T02620229
                 10291 20262 56014 =
2014-07-27 18:58 METAR KDOV 272258Z AUTO 20009KT 10SM FEW160 27/23 A2969 RMK AO2 SLP057 T02680226
                 =
2014-07-27 17:58 METAR KDOV 272158Z AUTO 20012KT 10SM CLR 28/23 A2971 =
2014-07-27 16:58 METAR KDOV 272058Z AUTO 21013G18KT 10SM FEW027 28/23 A2973 =
2014-07-27 16:23 METAR KDOV 272023Z AUTO 20015KT 10SM SCT025 28/23 A2974 RMK AO2 =
2014-07-27 16:13 METAR KDOV 272013Z AUTO 20014KT 10SM BKN024 28/23 A2975 RMK AO2 BKN V SCT =
2014-07-27 15:58 METAR KDOV 271958Z AUTO 20015KT 10SM BKN024 27/22 A2975 =
2014-07-27 15:48 METAR KDOV 271948Z AUTO 20014KT 10SM BKN026 BKN160 27/22 A2975 RMK AO2 CIG
                 026V160 BKN026 V SCT =
2014-07-27 15:33 METAR KDOV 271933Z AUTO 22017KT 10SM SCT026 SCT160 28/23 A2976 RMK AO2 CIG 025
                 RWY01 =
2014-07-27 15:23 METAR KDOV 271923Z AUTO 20011KT 10SM BKN026 27/23 A2976 RMK AO2 CIG 026V230 BKN
                 V SCT =
2014-07-27 14:58 METAR KDOV 271858Z AUTO 21014KT 10SM SCT030 SCT230 29/23 A2976 =
2014-07-27 14:53 METAR KDOV 271853Z AUTO 20015KT 10SM SCT029 29/23 A2977 RMK AO2 =
2014-07-27 14:48 METAR KDOV 271848Z AUTO 21016G20KT 10SM BKN029 29/23 A2977 =
2014-07-27 13:58 METAR KDOV 271758Z AUTO 20013KT 10SM FEW200 29/23 A2977 =
2014-07-27 12:58 METAR KDOV 271658Z AUTO 20008KT 10SM FEW120 SCT150 SCT170 BKN200 27/22 A2977 RMK
                 AO2 SLP084 T02720220 =
2014-07-27 11:58 METAR KDOV 271558Z AUTO 22006KT 10SM FEW120 SCT170 BKN200 27/22 A2977 RMK AO2
                 SLP084 T02720218 =
2014-07-27 10:58 METAR KDOV 271458Z AUTO 24009KT 10SM FEW150 BKN200 26/22 A2979 =
2014-07-27 09:58 METAR KDOV 271358Z AUTO 23011KT 10SM SCT090 SCT200 26/22 A2981 =
2014-07-27 08:58 METAR KDOV 271258Z AUTO 25005KT 10SM FEW180 SCT210 25/23 A2980 RMK AO2 SLP094
                 T02500233 =
2014-07-27 07:58 METAR KDOV 271158Z AUTO 23004KT 10SM CLR 23/23 A2981 =
2014-07-27 07:26 METAR KDOV 271126Z AUTO 21007KT 10SM FEW007 SCT110 23/23 A2981 RMK AO2
                 RAB1126DZB1117E1126 =
2014-07-27 07:16 METAR KDOV 271116Z AUTO 20007KT 10SM -DZ FEW090 SCT110 23/23 A2981 RMK AO2 =
2014-07-27 06:58 METAR KDOV 271058Z AUTO 19008KT 10SM CLR 23/23 A2981 RMK AO2 RAB1007E1040DZE1052
                 SLP098 P0000 T02340234 =
2014-07-27 06:51 METAR KDOV 271051Z AUTO 20007KT 10SM CLR 23/23 A2981 RMK AO2 =
2014-07-27 06:28 METAR KDOV 271028Z AUTO 21008KT 10SM -DZ FEW075 SCT090 23/23 A2981 RMK AO2 =
2014-07-27 06:16 METAR KDOV 271016Z AUTO 20007KT 10SM SCT080 BKN090 23/23 A2981 RMK AO2 =
2014-07-27 06:06 METAR KDOV 271006Z AUTO 20008KT 10SM -RA SCT080 BKN095 23/23 A2981 RMK AO2
                 DZE1004 =
2014-07-27 06:03 METAR KDOV 271003Z AUTO 20008KT 10SM SCT075 BKN090 23/23 A2981 RMK AO2 =
2014-07-27 05:58 METAR KDOV 270958Z AUTO 20010KT 10SM -DZ BKN090 BKN120 23/23 A2981 =
2014-07-27 05:53 METAR KDOV 270953Z AUTO 20008KT 10SM -DZ BKN090 BKN110 23/23 A2981 RMK AO2 =
2014-07-27 04:58 METAR KDOV 270858Z AUTO 17007KT 10SM SCT110 BKN150 22/22 A2981 RMK AO2 SLP098
                 T02240224 58012 =

Support USWX by starting your Amazon purchase here.